createdAt,value
2022-12-27T00:00:48.378Z,2.74
2022-12-27T00:03:16.623Z,2.86
2022-12-27T00:05:46.412Z,2.93
2022-12-27T00:08:15.467Z,3.22
2022-12-27T00:11:25.697Z,3.24
2022-12-27T00:13:53.855Z,3.18
2022-12-27T00:16:25.384Z,3.12
2022-12-27T00:18:53.480Z,3.28
2022-12-27T00:21:23.189Z,3.43
2022-12-27T00:23:54.326Z,3.57
2022-12-27T00:26:24.297Z,3.39
2022-12-27T00:28:56.377Z,3.75
2022-12-27T00:31:28.132Z,3.72
2022-12-27T00:34:19.268Z,3.64
2022-12-27T00:36:51.615Z,3.82
2022-12-27T00:39:19.592Z,3.68
2022-12-27T00:41:47.696Z,3.62
2022-12-27T00:44:19.068Z,3.68
2022-12-27T00:46:48.451Z,3.55
2022-12-27T00:49:16.657Z,3.33
2022-12-27T00:51:44.776Z,3.39
2022-12-27T00:54:12.616Z,3.43
2022-12-27T00:56:56.285Z,3.32
2022-12-27T00:59:24.385Z,3.33
2022-12-27T01:01:53.885Z,3.19
2022-12-27T01:04:22.052Z,3.22
2022-12-27T01:06:50.037Z,3.32
2022-12-27T01:09:18.225Z,3.30
2022-12-27T01:11:46.369Z,3.23
2022-12-27T01:14:17.846Z,3.24
2022-12-27T01:16:48.834Z,3.37
2022-12-27T01:19:18.379Z,3.40
2022-12-27T01:21:46.477Z,3.51
2022-12-27T01:24:14.535Z,3.55
2022-12-27T01:26:42.711Z,3.54
2022-12-27T01:29:12.924Z,3.48
2022-12-27T01:31:41.058Z,3.49
2022-12-27T01:34:10.093Z,3.54
2022-12-27T01:36:40.140Z,3.48
2022-12-27T01:39:08.498Z,3.55
2022-12-27T01:41:55.904Z,3.62
2022-12-27T01:44:49.757Z,3.57
2022-12-27T01:47:25.890Z,3.54
2022-12-27T01:50:04.494Z,3.64
2022-12-27T01:52:40.789Z,3.63
2022-12-27T01:55:21.156Z,3.50
2022-12-27T01:57:51.492Z,3.43
2022-12-27T02:00:20.378Z,3.53
2022-12-27T02:02:49.223Z,3.40
2022-12-27T02:05:19.695Z,3.35
2022-12-27T02:07:59.040Z,3.50
2022-12-27T02:10:29.071Z,3.63
2022-12-27T02:12:58.334Z,3.62
2022-12-27T02:15:26.395Z,3.70
2022-12-27T02:17:54.452Z,3.67
2022-12-27T02:20:24.468Z,3.84
2022-12-27T02:23:51.080Z,4.06
2022-12-27T02:26:44.911Z,4.17
2022-12-27T02:29:45.222Z,4.17
2022-12-27T02:32:21.142Z,3.98
2022-12-27T02:34:57.502Z,3.68
2022-12-27T02:37:29.352Z,3.71
2022-12-27T02:40:20.647Z,3.64
2022-12-27T02:43:08.547Z,3.65
2022-12-27T02:46:01.298Z,3.61
2022-12-27T02:48:46.992Z,3.55
2022-12-27T02:51:50.998Z,3.56
2022-12-27T02:54:37.011Z,3.57
2022-12-27T02:57:13.266Z,3.59
2022-12-27T03:00:21.331Z,3.75
2022-12-27T03:03:28.602Z,3.73
2022-12-27T03:06:34.115Z,3.86
2022-12-27T03:09:36.246Z,3.76
2022-12-27T03:12:26.780Z,3.81
2022-12-27T03:15:18.775Z,3.71
2022-12-27T03:17:58.142Z,3.60
2022-12-27T03:20:43.549Z,3.66
2022-12-27T03:23:31.078Z,3.48
2022-12-27T03:26:00.451Z,3.57
2022-12-27T03:28:48.375Z,3.56
2022-12-27T03:31:37.913Z,3.48
2022-12-27T03:34:24.633Z,3.39
2022-12-27T03:37:16.772Z,3.51
2022-12-27T03:39:51.393Z,3.42
2022-12-27T03:42:42.555Z,3.44
2022-12-27T03:45:11.531Z,3.48
2022-12-27T03:47:47.748Z,3.49
2022-12-27T03:50:24.577Z,3.35
2022-12-27T03:53:00.193Z,3.40
2022-12-27T03:55:33.307Z,3.50
2022-12-27T03:58:01.993Z,3.38
2022-12-27T04:00:30.008Z,3.40
2022-12-27T04:02:58.576Z,3.32
2022-12-27T04:05:28.228Z,3.34
2022-12-27T04:08:14.635Z,3.41
2022-12-27T04:11:00.387Z,3.39
2022-12-27T04:14:19.719Z,3.44
2022-12-27T04:17:06.753Z,3.33
2022-12-27T04:19:57.240Z,3.41
2022-12-27T04:22:45.506Z,3.40
2022-12-27T04:25:44.068Z,3.64
2022-12-27T04:29:02.416Z,3.77
2022-12-27T04:31:48.149Z,3.76
2022-12-27T04:34:34.245Z,3.75
2022-12-27T04:37:12.081Z,3.50
2022-12-27T04:39:41.489Z,3.42
2022-12-27T04:42:28.028Z,3.62
2022-12-27T04:45:15.559Z,3.65
2022-12-27T04:48:01.604Z,3.72
2022-12-27T04:50:49.887Z,3.69
2022-12-27T04:53:37.821Z,3.66
2022-12-27T04:56:10.811Z,3.50
2022-12-27T04:59:00.887Z,3.47
2022-12-27T05:01:47.924Z,3.32
2022-12-27T05:04:18.532Z,3.24
2022-12-27T05:06:46.642Z,3.16
2022-12-27T05:09:38.517Z,3.16
2022-12-27T05:12:28.184Z,3.02
2022-12-27T05:14:56.092Z,3.09
2022-12-27T05:17:24.004Z,3.14
2022-12-27T05:19:52.055Z,3.19
2022-12-27T05:22:37.743Z,3.12
2022-12-27T05:25:38.591Z,3.07
2022-12-27T05:28:10.106Z,3.10
2022-12-27T05:30:40.641Z,3.12
2022-12-27T05:33:09.960Z,3.21
2022-12-27T05:35:39.307Z,3.40
2022-12-27T05:38:09.533Z,3.30
2022-12-27T05:40:38.030Z,3.51
2022-12-27T05:43:08.804Z,3.50
2022-12-27T05:45:36.916Z,3.45
2022-12-27T05:48:05.467Z,3.35
2022-12-27T05:50:33.778Z,3.24
2022-12-27T05:53:01.741Z,3.17
2022-12-27T05:55:29.817Z,3.10
2022-12-27T05:57:57.871Z,3.02
2022-12-27T06:00:27.333Z,2.89
2022-12-27T06:02:55.523Z,2.78
2022-12-27T06:05:23.555Z,2.83
2022-12-27T06:07:51.913Z,2.70
2022-12-27T06:10:19.900Z,2.53
2022-12-27T06:12:48.328Z,2.56
2022-12-27T06:15:16.449Z,2.50
2022-12-27T06:17:47.214Z,2.47
2022-12-27T06:20:18.023Z,2.62
2022-12-27T06:22:46.305Z,2.63
2022-12-27T06:25:14.621Z,2.84
2022-12-27T06:27:42.892Z,2.84
2022-12-27T06:30:12.313Z,2.57
2022-12-27T06:32:40.339Z,2.72
2022-12-27T06:35:11.453Z,2.65
2022-12-27T06:37:39.544Z,2.65
2022-12-27T06:40:08.666Z,2.41
2022-12-27T06:42:38.687Z,2.37
2022-12-27T06:45:09.516Z,2.35
2022-12-27T06:47:39.089Z,2.12
2022-12-27T06:50:10.638Z,2.36
2022-12-27T06:52:38.876Z,2.24
2022-12-27T06:55:10.636Z,2.27
2022-12-27T06:57:52.502Z,2.17
2022-12-27T07:00:23.576Z,2.35
2022-12-27T07:02:58.030Z,2.32
2022-12-27T07:05:32.192Z,2.25
2022-12-27T07:08:09.417Z,2.48
2022-12-27T07:10:54.358Z,2.45
2022-12-27T07:13:25.089Z,2.62
2022-12-27T07:15:54.805Z,2.75
2022-12-27T07:18:33.260Z,2.65
2022-12-27T07:21:16.121Z,2.51
2022-12-27T07:23:48.400Z,2.56
2022-12-27T07:26:22.847Z,2.46
2022-12-27T07:29:02.348Z,2.67
2022-12-27T07:35:03.587Z,2.47
2022-12-27T07:37:35.874Z,2.34
2022-12-27T07:40:11.359Z,2.40
2022-12-27T07:42:42.148Z,2.37
2022-12-27T07:45:12.251Z,2.23
2022-12-27T07:47:59.717Z,2.18
2022-12-27T07:50:27.810Z,2.10
2022-12-27T07:52:57.408Z,2.12
2022-12-27T07:55:28.328Z,2.12
2022-12-27T07:57:56.613Z,2.16
2022-12-27T08:00:41.005Z,2.24
2022-12-27T08:03:08.855Z,2.16
2022-12-27T08:05:37.017Z,2.14
2022-12-27T08:08:07.028Z,2.10
2022-12-27T08:10:36.800Z,2.22
2022-12-27T08:13:09.636Z,2.25
2022-12-27T08:15:39.801Z,2.28
2022-12-27T08:18:08.437Z,2.38
2022-12-27T08:20:38.713Z,2.29
2022-12-27T08:23:41.203Z,2.39
2022-12-27T08:26:28.043Z,2.28
2022-12-27T08:28:57.152Z,2.33
2022-12-27T08:31:26.192Z,2.27
2022-12-27T08:33:58.823Z,2.34
2022-12-27T08:39:49.520Z,2.29
2022-12-27T08:42:17.684Z,2.35
2022-12-27T08:44:49.587Z,2.40
2022-12-27T08:47:19.584Z,2.42
2022-12-27T08:49:49.388Z,2.26
2022-12-27T08:52:18.493Z,2.36
2022-12-27T08:54:52.707Z,2.36
2022-12-27T08:57:20.857Z,2.51
2022-12-27T08:59:48.859Z,2.61
2022-12-27T09:02:17.182Z,2.57
2022-12-27T09:04:45.160Z,2.71
2022-12-27T09:07:13.458Z,2.78
2022-12-27T09:09:42.836Z,2.81
2022-12-27T09:12:12.538Z,2.94
2022-12-27T09:14:40.627Z,2.84
2022-12-27T09:17:09.583Z,2.87
2022-12-27T09:19:38.420Z,3.27
2022-12-27T09:22:09.071Z,3.27
2022-12-27T09:24:37.250Z,3.26
2022-12-27T09:27:07.907Z,3.63
2022-12-27T09:29:41.561Z,3.71
2022-12-27T09:32:12.343Z,3.77
2022-12-27T09:34:41.183Z,4.11
2022-12-27T09:37:10.234Z,4.31
2022-12-27T09:39:38.392Z,4.34
2022-12-27T09:45:14.336Z,4.79
2022-12-27T09:47:51.125Z,4.72
2022-12-27T09:50:22.228Z,4.27
2022-12-27T09:52:58.022Z,4.07
2022-12-27T09:55:38.385Z,3.97
2022-12-27T09:58:19.053Z,3.88
2022-12-27T10:00:52.414Z,3.82
2022-12-27T10:03:27.231Z,3.95
2022-12-27T10:06:02.048Z,3.88
2022-12-27T10:08:52.779Z,3.98
2022-12-27T10:11:41.881Z,3.92
2022-12-27T10:14:23.141Z,3.87
2022-12-27T10:17:02.278Z,4.12
2022-12-27T10:19:41.764Z,4.05
2022-12-27T10:22:23.320Z,4.06
2022-12-27T10:24:56.458Z,4.32
2022-12-27T10:27:29.209Z,4.31
2022-12-27T10:29:59.151Z,4.41
2022-12-27T10:32:28.779Z,4.57
2022-12-27T10:35:00.100Z,4.53
2022-12-27T10:37:28.834Z,4.75
2022-12-27T10:40:02.169Z,4.99
2022-12-27T10:42:38.141Z,5.15
2022-12-27T10:45:28.874Z,5.37
2022-12-27T10:48:14.353Z,5.45
2022-12-27T10:50:47.440Z,5.58
2022-12-27T10:53:55.266Z,5.56
2022-12-27T10:56:27.697Z,5.32
2022-12-27T10:58:59.240Z,5.25
2022-12-27T11:01:29.212Z,5.20
2022-12-27T11:04:21.841Z,5.31
2022-12-27T11:06:52.471Z,5.49
2022-12-27T11:09:29.884Z,5.70
2022-12-27T11:12:20.075Z,5.47
2022-12-27T11:15:00.886Z,5.50
2022-12-27T11:17:34.896Z,5.19
2022-12-27T11:20:19.526Z,5.28
2022-12-27T11:22:52.229Z,5.53
2022-12-27T11:25:20.878Z,5.73
2022-12-27T11:27:52.432Z,5.84
2022-12-27T11:30:26.682Z,6.50
2022-12-27T11:32:55.116Z,6.46
2022-12-27T11:35:25.172Z,6.58
2022-12-27T11:37:53.610Z,6.56
2022-12-27T11:40:34.794Z,6.74
2022-12-27T11:43:09.214Z,6.50
2022-12-27T11:45:48.760Z,6.22
2022-12-27T11:48:26.582Z,6.42
2022-12-27T11:51:18.749Z,6.44
2022-12-27T11:54:15.619Z,6.28
2022-12-27T11:56:46.515Z,6.14
2022-12-27T11:59:40.546Z,6.39
2022-12-27T12:02:45.008Z,6.31
2022-12-27T12:05:43.270Z,6.39
2022-12-27T12:08:54.393Z,6.48
2022-12-27T12:11:41.481Z,6.30
2022-12-27T12:14:51.554Z,6.21
2022-12-27T12:17:52.500Z,6.14
2022-12-27T12:20:55.787Z,5.99
2022-12-27T12:23:40.419Z,5.77
2022-12-27T12:26:19.763Z,5.85
2022-12-27T12:29:30.657Z,6.09
2022-12-27T12:32:30.078Z,6.60
2022-12-27T12:35:25.269Z,7.02
2022-12-27T12:38:13.925Z,6.95
2022-12-27T12:41:35.781Z,6.85
2022-12-27T12:44:50.474Z,6.59
2022-12-27T12:47:40.885Z,6.26
2022-12-27T12:50:26.624Z,6.41
2022-12-27T12:53:29.039Z,6.69
2022-12-27T12:56:14.156Z,6.81
2022-12-27T12:58:59.156Z,6.93
2022-12-27T13:01:37.164Z,6.80
2022-12-27T13:04:36.449Z,6.57
2022-12-27T13:07:37.790Z,6.61
2022-12-27T13:10:43.146Z,6.85
2022-12-27T13:13:21.726Z,6.98
2022-12-27T13:16:09.226Z,6.75
2022-12-27T13:18:50.109Z,6.74
2022-12-27T13:21:27.333Z,6.56
2022-12-27T13:24:08.384Z,6.65
2022-12-27T13:26:46.797Z,6.53
2022-12-27T13:29:43.820Z,6.62
2022-12-27T13:32:20.556Z,6.78
2022-12-27T13:35:01.285Z,7.15
2022-12-27T13:37:41.672Z,7.31
2022-12-27T13:40:30.006Z,7.30
2022-12-27T13:43:33.449Z,7.37
2022-12-27T13:46:13.583Z,7.41
2022-12-27T13:48:56.575Z,7.34
2022-12-27T13:51:45.775Z,6.97
2022-12-27T13:54:48.638Z,6.59
2022-12-27T13:58:04.990Z,6.61
2022-12-27T14:00:43.350Z,6.34
2022-12-27T14:03:39.181Z,6.41
2022-12-27T14:06:38.875Z,6.27
2022-12-27T14:09:31.422Z,6.18
2022-12-27T14:12:26.328Z,6.25
2022-12-27T14:14:58.799Z,6.16
2022-12-27T14:17:36.296Z,6.29
2022-12-27T14:20:29.793Z,6.11
2022-12-27T14:23:32.662Z,6.27
2022-12-27T14:26:29.870Z,6.16
2022-12-27T14:29:35.653Z,6.09
2022-12-27T14:33:06.216Z,5.92
2022-12-27T14:35:58.945Z,6.03
2022-12-27T14:38:51.021Z,6.05
2022-12-27T14:42:06.242Z,6.03
2022-12-27T14:45:20.151Z,5.94
2022-12-27T14:48:05.971Z,6.03
2022-12-27T14:54:56.204Z,5.78
2022-12-27T14:57:39.024Z,5.66
2022-12-27T15:00:18.937Z,5.46
2022-12-27T15:03:05.920Z,5.29
2022-12-27T15:05:46.544Z,5.39
2022-12-27T15:08:44.963Z,5.57
2022-12-27T15:11:35.064Z,5.44
2022-12-27T15:14:21.186Z,5.51
2022-12-27T15:16:59.231Z,5.42
2022-12-27T15:19:50.347Z,5.36
2022-12-27T15:22:28.625Z,5.23
2022-12-27T15:25:02.491Z,5.22
2022-12-27T15:27:40.161Z,5.21
2022-12-27T15:30:24.633Z,5.16
2022-12-27T15:33:01.010Z,5.25
2022-12-27T15:35:44.777Z,5.24
2022-12-27T15:38:41.125Z,5.37
2022-12-27T15:41:38.646Z,5.40
2022-12-27T15:44:42.935Z,5.33
2022-12-27T15:47:53.761Z,5.35
2022-12-27T15:50:51.522Z,5.41
2022-12-27T15:53:45.171Z,5.39
2022-12-27T15:56:53.527Z,5.38
2022-12-27T15:59:42.293Z,5.36
2022-12-27T16:02:32.241Z,5.37
2022-12-27T16:05:07.081Z,5.29
2022-12-27T16:08:00.317Z,5.23
2022-12-27T16:10:49.250Z,5.18
2022-12-27T16:13:28.582Z,5.08
2022-12-27T16:15:57.591Z,5.08
2022-12-27T16:18:59.971Z,4.96
2022-12-27T16:21:37.999Z,4.79
2022-12-27T16:24:14.292Z,4.60
2022-12-27T16:26:53.336Z,4.59
2022-12-27T16:29:25.663Z,4.52
2022-12-27T16:32:16.367Z,4.43
2022-12-27T16:34:50.867Z,4.31
2022-12-27T16:37:28.931Z,4.26
2022-12-27T16:40:17.066Z,4.23
2022-12-27T16:43:18.900Z,4.17
2022-12-27T16:45:58.825Z,4.12
2022-12-27T16:48:47.287Z,4.17
2022-12-27T16:51:39.837Z,4.14
2022-12-27T16:54:23.920Z,4.21
2022-12-27T16:57:34.229Z,4.18
2022-12-27T17:00:39.117Z,4.10
2022-12-27T17:03:44.333Z,4.12
2022-12-27T17:06:54.273Z,4.11
2022-12-27T17:09:42.460Z,4.17
2022-12-27T17:12:21.389Z,4.24
2022-12-27T17:14:56.014Z,4.21
2022-12-27T17:17:25.064Z,4.17
2022-12-27T17:19:58.246Z,4.22
2022-12-27T17:22:33.899Z,4.09
2022-12-27T17:25:04.524Z,4.07
2022-12-27T17:27:55.352Z,4.22
2022-12-27T17:30:26.432Z,4.18
2022-12-27T17:33:22.918Z,4.22
2022-12-27T17:36:10.107Z,4.26
2022-12-27T17:38:51.177Z,4.30
2022-12-27T17:41:52.381Z,4.34
2022-12-27T17:44:41.478Z,4.24
2022-12-27T17:47:26.918Z,4.31
2022-12-27T17:49:58.934Z,4.48
2022-12-27T17:52:44.543Z,4.55
2022-12-27T17:55:40.031Z,4.60
2022-12-27T17:58:11.723Z,4.66
2022-12-27T18:00:53.548Z,4.71
2022-12-27T18:03:26.196Z,4.79
2022-12-27T18:05:54.252Z,4.83
2022-12-27T18:08:29.089Z,4.86
2022-12-27T18:10:58.098Z,4.89
2022-12-27T18:13:28.429Z,4.81
2022-12-27T18:15:57.475Z,4.85
2022-12-27T18:18:29.602Z,4.89
2022-12-27T18:20:59.917Z,5.06
2022-12-27T18:23:28.514Z,5.18
2022-12-27T18:26:06.782Z,5.22
2022-12-27T18:28:39.694Z,5.28
2022-12-27T18:31:14.176Z,5.32
2022-12-27T18:33:45.778Z,5.29
2022-12-27T18:36:21.332Z,5.31
2022-12-27T18:38:55.258Z,5.36
2022-12-27T18:41:24.376Z,5.29
2022-12-27T18:43:59.868Z,5.33
2022-12-27T18:46:31.073Z,5.38
2022-12-27T18:49:02.110Z,5.42
2022-12-27T18:51:34.945Z,5.34
2022-12-27T18:54:03.476Z,5.46
2022-12-27T18:56:32.787Z,5.51
2022-12-27T18:59:03.176Z,5.48
2022-12-27T19:01:39.614Z,5.55
2022-12-27T19:04:31.496Z,5.62
2022-12-27T19:07:08.825Z,5.63
2022-12-27T19:09:40.227Z,5.66
2022-12-27T19:12:20.369Z,5.73
2022-12-27T19:14:48.621Z,5.77
2022-12-27T19:17:20.041Z,5.69
2022-12-27T19:19:52.300Z,5.81
2022-12-27T19:22:41.381Z,5.81
2022-12-27T19:25:23.695Z,5.78
2022-12-27T19:28:04.496Z,5.75
2022-12-27T19:30:40.217Z,5.80
2022-12-27T19:33:14.319Z,5.74
2022-12-27T19:35:44.259Z,5.76
2022-12-27T19:38:20.598Z,5.75
2022-12-27T19:40:56.659Z,5.76
2022-12-27T19:43:29.026Z,5.82
2022-12-27T19:45:57.401Z,5.79
2022-12-27T19:48:25.338Z,5.89
2022-12-27T19:50:55.968Z,5.85
2022-12-27T19:53:29.792Z,5.91
2022-12-27T19:55:58.374Z,5.90
2022-12-27T19:58:28.381Z,5.98
2022-12-27T20:00:56.453Z,5.95
2022-12-27T20:03:24.674Z,5.94
2022-12-27T20:06:11.844Z,5.90
2022-12-27T20:08:45.281Z,5.96
2022-12-27T20:11:16.678Z,5.94
2022-12-27T20:13:46.235Z,5.86
2022-12-27T20:16:15.906Z,6.02
2022-12-27T20:18:44.685Z,6.10
2022-12-27T20:21:15.466Z,6.12
2022-12-27T20:23:43.790Z,6.19
2022-12-27T20:26:12.415Z,6.19
2022-12-27T20:28:41.236Z,6.25
2022-12-27T20:31:10.552Z,6.23
2022-12-27T20:33:38.678Z,6.23
2022-12-27T20:36:07.782Z,6.26
2022-12-27T20:38:39.155Z,6.30
2022-12-27T20:41:08.602Z,6.31
2022-12-27T20:43:36.884Z,6.32
2022-12-27T20:46:06.396Z,6.28
2022-12-27T20:48:34.498Z,6.23
2022-12-27T20:51:08.355Z,6.32
2022-12-27T20:53:38.030Z,6.28
2022-12-27T20:56:08.961Z,6.30
2022-12-27T20:58:40.234Z,6.26
2022-12-27T21:01:09.649Z,6.26
2022-12-27T21:03:38.656Z,6.09
2022-12-27T21:06:08.386Z,6.12
2022-12-27T21:08:45.407Z,6.11
2022-12-27T21:11:18.880Z,6.09
2022-12-27T21:13:48.204Z,6.00
2022-12-27T21:16:19.247Z,5.99
2022-12-27T21:18:49.851Z,6.01
2022-12-27T21:21:38.413Z,5.99
2022-12-27T21:24:14.425Z,5.92
2022-12-27T21:26:43.801Z,5.82
2022-12-27T21:29:14.437Z,5.88
2022-12-27T21:31:42.601Z,5.87
2022-12-27T21:34:10.798Z,5.86
2022-12-27T21:36:39.369Z,5.80
2022-12-27T21:39:08.834Z,5.84
2022-12-27T21:41:40.428Z,5.82
2022-12-27T21:44:08.609Z,5.84
2022-12-27T21:46:38.145Z,5.86
2022-12-27T21:49:08.395Z,5.83
2022-12-27T21:51:37.770Z,5.82
2022-12-27T21:54:08.049Z,5.83
2022-12-27T21:56:37.016Z,5.84
2022-12-27T21:59:11.024Z,5.81
2022-12-27T22:01:52.273Z,5.83
2022-12-27T22:04:22.082Z,5.86
2022-12-27T22:06:50.851Z,5.85
2022-12-27T22:09:19.630Z,5.83
2022-12-27T22:11:49.475Z,5.84
2022-12-27T22:14:25.383Z,5.76
2022-12-27T22:16:53.992Z,5.82
2022-12-27T22:19:22.102Z,5.77
2022-12-27T22:21:50.114Z,5.81
2022-12-27T22:24:19.733Z,5.78
2022-12-27T22:26:50.230Z,5.81
2022-12-27T22:29:21.638Z,5.86
2022-12-27T22:31:49.627Z,5.84
2022-12-27T22:34:17.625Z,5.85
2022-12-27T22:36:45.617Z,5.80
2022-12-27T22:39:13.735Z,5.78
2022-12-27T22:41:43.715Z,5.70
2022-12-27T22:44:13.494Z,5.58
2022-12-27T22:47:24.931Z,5.52
2022-12-27T22:49:31.666Z,5.46
2022-12-27T22:51:59.851Z,5.41
2022-12-27T22:55:05.757Z,5.36
2022-12-27T22:57:17.801Z,5.23
2022-12-27T22:59:48.896Z,5.23
2022-12-27T23:02:18.517Z,5.20
2022-12-27T23:04:46.732Z,5.07
2022-12-27T23:07:20.020Z,5.11
2022-12-27T23:09:48.216Z,5.09
2022-12-27T23:12:16.301Z,5.07
2022-12-27T23:14:44.494Z,5.04
2022-12-27T23:17:12.595Z,5.03
2022-12-27T23:19:49.170Z,4.99
2022-12-27T23:22:17.109Z,4.89
2022-12-27T23:24:52.709Z,4.95
2022-12-27T23:27:20.699Z,4.90
2022-12-27T23:29:49.108Z,4.94
2022-12-27T23:32:18.399Z,4.95
2022-12-27T23:34:47.894Z,4.96
2022-12-27T23:37:16.231Z,4.93
2022-12-27T23:39:44.289Z,4.92
2022-12-27T23:42:13.191Z,4.88
2022-12-27T23:44:41.408Z,4.91
2022-12-27T23:47:09.563Z,4.87
2022-12-27T23:49:40.668Z,4.87
2022-12-27T23:52:10.361Z,4.86
2022-12-27T23:54:38.495Z,4.85
2022-12-27T23:57:22.545Z,4.79
2022-12-27T23:59:55.334Z,4.75
